sensor_id;sensor_type;location;lat;lon;timestamp;pressure;altitude;pressure_sealevel;temperature;humidity
71964;BME280;59834;52.124;5.422;2023-02-01T00:02:12;101984.47;;;4.17;87.17
71964;BME280;59834;52.124;5.422;2023-02-01T00:04:39;101980.94;;;4.23;86.83
71964;BME280;59834;52.124;5.422;2023-02-01T00:07:05;101976.59;;;4.23;86.88
71964;BME280;59834;52.124;5.422;2023-02-01T00:09:33;101973.09;;;4.24;86.95
71964;BME280;59834;52.124;5.422;2023-02-01T00:11:59;101986.91;;;4.25;86.79
71964;BME280;59834;52.124;5.422;2023-02-01T00:14:28;101981.78;;;4.23;86.54
71964;BME280;59834;52.124;5.422;2023-02-01T00:16:55;101988.66;;;4.24;86.90
71964;BME280;59834;52.124;5.422;2023-02-01T00:19:21;101986.00;;;4.28;87.01
71964;BME280;59834;52.124;5.422;2023-02-01T00:21:48;101983.41;;;4.28;86.58
71964;BME280;59834;52.124;5.422;2023-02-01T00:24:20;101980.72;;;4.34;87.24
71964;BME280;59834;52.124;5.422;2023-02-01T00:26:47;101978.91;;;4.37;87.31
71964;BME280;59834;52.124;5.422;2023-02-01T00:29:19;101965.13;;;4.35;86.64
71964;BME280;59834;52.124;5.422;2023-02-01T00:31:46;101976.25;;;4.40;87.26
71964;BME280;59834;52.124;5.422;2023-02-01T00:34:15;101971.03;;;4.42;87.29
71964;BME280;59834;52.124;5.422;2023-02-01T00:36:43;101966.69;;;4.44;87.15
71964;BME280;59834;52.124;5.422;2023-02-01T00:39:11;101976.22;;;4.42;86.98
71964;BME280;59834;52.124;5.422;2023-02-01T00:41:38;101974.47;;;4.44;86.89
71964;BME280;59834;52.124;5.422;2023-02-01T00:44:04;101976.16;;;4.45;87.14
71964;BME280;59834;52.124;5.422;2023-02-01T00:46:31;101979.59;;;4.47;87.11
71964;BME280;59834;52.124;5.422;2023-02-01T00:48:58;101976.16;;;4.45;86.88
71964;BME280;59834;52.124;5.422;2023-02-01T00:51:27;101972.78;;;4.43;87.09
71964;BME280;59834;52.124;5.422;2023-02-01T00:53:54;101976.09;;;4.48;87.36
71964;BME280;59834;52.124;5.422;2023-02-01T00:56:21;101973.34;;;4.56;86.64
71964;BME280;59834;52.124;5.422;2023-02-01T00:58:48;101975.09;;;4.55;86.92
71964;BME280;59834;52.124;5.422;2023-02-01T01:01:23;101977.75;;;4.52;87.24
71964;BME280;59834;52.124;5.422;2023-02-01T01:03:56;101970.75;;;4.57;87.03
71964;BME280;59834;52.124;5.422;2023-02-01T01:06:28;101967.25;;;4.60;87.02
71964;BME280;59834;52.124;5.422;2023-02-01T01:08:56;101974.13;;;4.61;86.65
71964;BME280;59834;52.124;5.422;2023-02-01T01:11:26;101974.06;;;4.62;86.77
71964;BME280;59834;52.124;5.422;2023-02-01T01:13:54;101964.53;;;4.64;86.84
71964;BME280;59834;52.124;5.422;2023-02-01T01:16:23;101960.91;;;4.73;86.39
71964;BME280;59834;52.124;5.422;2023-02-01T01:18:53;101952.31;;;4.71;86.38
71964;BME280;59834;52.124;5.422;2023-02-01T01:21:21;101947.94;;;4.73;85.89
71964;BME280;59834;52.124;5.422;2023-02-01T01:23:47;101948.00;;;4.70;85.75
71964;BME280;59834;52.124;5.422;2023-02-01T01:26:18;101954.84;;;4.72;85.83
71964;BME280;59834;52.124;5.422;2023-02-01T01:28:45;101962.53;;;4.77;85.43
71964;BME280;59834;52.124;5.422;2023-02-01T01:31:14;101956.50;;;4.77;85.45
71964;BME280;59834;52.124;5.422;2023-02-01T01:33:41;101947.72;;;4.84;85.08
71964;BME280;59834;52.124;5.422;2023-02-01T01:36:09;101947.72;;;4.84;84.51
71964;BME280;59834;52.124;5.422;2023-02-01T01:38:41;101938.97;;;4.88;84.48
71964;BME280;59834;52.124;5.422;2023-02-01T01:41:13;101948.38;;;4.92;84.45
71964;BME280;59834;52.124;5.422;2023-02-01T01:43:57;101940.66;;;4.89;84.02
71964;BME280;59834;52.124;5.422;2023-02-01T01:46:30;101938.97;;;4.88;84.27
71964;BME280;59834;52.124;5.422;2023-02-01T01:49:13;101950.22;;;4.87;84.14
71964;BME280;59834;52.124;5.422;2023-02-01T01:51:48;101950.06;;;4.94;83.91
71964;BME280;59834;52.124;5.422;2023-02-01T01:54:23;101936.94;;;5.01;84.13
71964;BME280;59834;52.124;5.422;2023-02-01T01:56:57;101937.75;;;5.03;83.50
71964;BME280;59834;52.124;5.422;2023-02-01T01:59:25;101934.22;;;5.07;83.74
71964;BME280;59834;52.124;5.422;2023-02-01T02:01:52;101928.97;;;5.08;83.61
71964;BME280;59834;52.124;5.422;2023-02-01T02:04:19;101932.41;;;5.10;82.92
71964;BME280;59834;52.124;5.422;2023-02-01T02:07:24;101928.88;;;5.13;83.37
71964;BME280;59834;52.124;5.422;2023-02-01T02:09:52;101916.72;;;5.15;82.84
71964;BME280;59834;52.124;5.422;2023-02-01T02:12:26;101918.31;;;5.20;83.21
71964;BME280;59834;52.124;5.422;2023-02-01T02:14:53;101917.34;;;5.25;83.46
71964;BME280;59834;52.124;5.422;2023-02-01T02:17:26;101925.19;;;5.23;82.99
71964;BME280;59834;52.124;5.422;2023-02-01T02:37:09;101900.72;;;5.33;83.83
71964;BME280;59834;52.124;5.422;2023-02-01T02:42:50;101890.94;;;5.43;84.48
71964;BME280;59834;52.124;5.422;2023-02-01T02:45:49;101890.94;;;5.43;84.17
71964;BME280;59834;52.124;5.422;2023-02-01T02:48:50;101892.66;;;5.44;83.89
71964;BME280;59834;52.124;5.422;2023-02-01T02:51:34;101888.31;;;5.43;84.81
71964;BME280;59834;52.124;5.422;2023-02-01T02:54:27;101882.19;;;5.47;84.21
71964;BME280;59834;52.124;5.422;2023-02-01T02:57:22;101882.00;;;5.53;83.94
71964;BME280;59834;52.124;5.422;2023-02-01T03:00:13;101875.88;;;5.56;83.67
71964;BME280;59834;52.124;5.422;2023-02-01T03:03:00;101852.66;;;5.51;83.93
71964;BME280;59834;52.124;5.422;2023-02-01T03:05:47;101859.63;;;5.49;83.78
71964;BME280;59834;52.124;5.422;2023-02-01T03:08:25;101856.22;;;5.47;84.03
71964;BME280;59834;52.124;5.422;2023-02-01T03:11:07;101854.63;;;5.41;83.84
71964;BME280;59834;52.124;5.422;2023-02-01T03:16:30;101846.78;;;5.43;84.18
71964;BME280;59834;52.124;5.422;2023-02-01T03:19:23;101856.47;;;5.38;83.78
71964;BME280;59834;52.124;5.422;2023-02-01T03:22:02;101864.25;;;5.38;84.02
71964;BME280;59834;52.124;5.422;2023-02-01T03:24:40;101858.22;;;5.36;83.57
71964;BME280;59834;52.124;5.422;2023-02-01T03:29:47;101860.25;;;5.25;83.83
71964;BME280;59834;52.124;5.422;2023-02-01T03:32:16;101852.38;;;5.28;83.94
71964;BME280;59834;52.124;5.422;2023-02-01T03:34:43;101842.81;;;5.30;83.63
71964;BME280;59834;52.124;5.422;2023-02-01T03:37:11;101850.75;;;5.24;83.89
71964;BME280;59834;52.124;5.422;2023-02-01T03:40:09;101866.34;;;5.24;84.08
71964;BME280;59834;52.124;5.422;2023-02-01T03:42:43;101854.34;;;5.18;83.55
71964;BME280;59834;52.124;5.422;2023-02-01T03:45:35;101857.88;;;5.15;84.45
71964;BME280;59834;52.124;5.422;2023-02-01T03:48:06;101874.28;;;5.16;84.53
71964;BME280;59834;52.124;5.422;2023-02-01T03:50:36;101862.06;;;5.21;83.88
71964;BME280;59834;52.124;5.422;2023-02-01T03:53:15;101871.69;;;5.17;84.04
71964;BME280;59834;52.124;5.422;2023-02-01T03:55:44;101882.78;;;5.23;84.00
71964;BME280;59834;52.124;5.422;2023-02-01T03:58:19;101874.06;;;5.27;84.15
71964;BME280;59834;52.124;5.422;2023-02-01T04:00:52;101866.50;;;5.17;84.42
71964;BME280;59834;52.124;5.422;2023-02-01T04:03:19;101865.66;;;5.15;84.53
71964;BME280;59834;52.124;5.422;2023-02-01T04:05:49;101875.88;;;5.23;84.04
71964;BME280;59834;52.124;5.422;2023-02-01T04:08:15;101866.28;;;5.27;84.03
71964;BME280;59834;52.124;5.422;2023-02-01T04:10:42;101860.19;;;5.28;84.33
71964;BME280;59834;52.124;5.422;2023-02-01T04:13:09;101862.72;;;5.29;84.38
71964;BME280;59834;52.124;5.422;2023-02-01T04:15:35;101857.44;;;5.32;84.64
71964;BME280;59834;52.124;5.422;2023-02-01T04:18:02;101859.94;;;5.37;83.91
71964;BME280;59834;52.124;5.422;2023-02-01T04:20:29;101864.13;;;5.42;84.20
71964;BME280;59834;52.124;5.422;2023-02-01T04:22:56;101864.88;;;5.46;83.62
71964;BME280;59834;52.124;5.422;2023-02-01T04:25:31;101870.97;;;5.47;83.42
71964;BME280;59834;52.124;5.422;2023-02-01T04:27:57;101871.75;;;5.49;83.77
71964;BME280;59834;52.124;5.422;2023-02-01T04:30:25;101882.13;;;5.50;83.43
71964;BME280;59834;52.124;5.422;2023-02-01T04:32:52;101885.44;;;5.55;83.25
71964;BME280;59834;52.124;5.422;2023-02-01T04:35:18;101862.75;;;5.62;83.20
71964;BME280;59834;52.124;5.422;2023-02-01T04:37:45;101858.41;;;5.62;82.87
71964;BME280;59834;52.124;5.422;2023-02-01T04:40:12;101851.53;;;5.60;82.47
71964;BME280;59834;52.124;5.422;2023-02-01T04:42:38;101850.75;;;5.58;82.88
71964;BME280;59834;52.124;5.422;2023-02-01T04:45:06;101857.91;;;5.48;82.93
71964;BME280;59834;52.124;5.422;2023-02-01T04:47:32;101865.78;;;5.45;83.21
71964;BME280;59834;52.124;5.422;2023-02-01T04:49:59;101864.03;;;5.46;83.61
71964;BME280;59834;52.124;5.422;2023-02-01T04:52:25;101860.66;;;5.42;83.38
71964;BME280;59834;52.124;5.422;2023-02-01T04:54:53;101864.19;;;5.39;83.94
71964;BME280;59834;52.124;5.422;2023-02-01T04:57:25;101854.69;;;5.40;83.75
71964;BME280;59834;52.124;5.422;2023-02-01T04:59:52;101847.22;;;5.26;83.72
71964;BME280;59834;52.124;5.422;2023-02-01T05:02:18;101863.66;;;5.27;84.10
71964;BME280;59834;52.124;5.422;2023-02-01T05:04:45;101857.66;;;5.25;84.38
71964;BME280;59834;52.124;5.422;2023-02-01T05:07:12;101846.28;;;5.29;84.32
71964;BME280;59834;52.124;5.422;2023-02-01T05:09:38;101852.25;;;5.34;83.71
71964;BME280;59834;52.124;5.422;2023-02-01T05:12:05;101854.69;;;5.40;83.89
71964;BME280;59834;52.124;5.422;2023-02-01T05:14:52;101856.31;;;5.42;83.92
71964;BME280;59834;52.124;5.422;2023-02-01T05:17:18;101852.09;;;5.38;83.88
71964;BME280;59834;52.124;5.422;2023-02-01T05:19:45;101849.72;;;5.31;84.37
71964;BME280;59834;52.124;5.422;2023-02-01T05:22:13;101847.19;;;5.28;84.20
71964;BME280;59834;52.124;5.422;2023-02-01T05:25:10;101851.50;;;5.29;84.99
71964;BME280;59834;52.124;5.422;2023-02-01T05:27:36;101850.44;;;5.36;84.46
71964;BME280;59834;52.124;5.422;2023-02-01T05:30:04;101866.00;;;5.37;83.83
71964;BME280;59834;52.124;5.422;2023-02-01T05:32:31;101863.34;;;5.39;83.73
71964;BME280;59834;52.124;5.422;2023-02-01T05:34:58;101859.78;;;5.43;84.32
71964;BME280;59834;52.124;5.422;2023-02-01T05:37:25;101860.66;;;5.43;84.38
71964;BME280;59834;52.124;5.422;2023-02-01T05:39:51;101859.78;;;5.43;83.91
71964;BME280;59834;52.124;5.422;2023-02-01T05:42:18;101861.41;;;5.47;84.34
71964;BME280;59834;52.124;5.422;2023-02-01T05:44:46;101874.47;;;5.44;84.21
71964;BME280;59834;52.124;5.422;2023-02-01T05:47:12;101862.47;;;5.40;84.89
71964;BME280;59834;52.124;5.422;2023-02-01T05:49:39;101869.31;;;5.42;84.38
71964;BME280;59834;52.124;5.422;2023-02-01T05:52:06;101859.69;;;5.46;83.80
71964;BME280;59834;52.124;5.422;2023-02-01T05:54:32;101862.28;;;5.48;84.13
71964;BME280;59834;52.124;5.422;2023-02-01T05:56:59;101867.41;;;5.49;83.63
71964;BME280;59834;52.124;5.422;2023-02-01T05:59:26;101857.91;;;5.48;83.96
71964;BME280;59834;52.124;5.422;2023-02-01T06:01:52;101863.13;;;5.48;83.76
71964;BME280;59834;52.124;5.422;2023-02-01T06:04:19;101878.50;;;5.56;84.19
71964;BME280;59834;52.124;5.422;2023-02-01T06:06:45;101859.38;;;5.58;84.16
71964;BME280;59834;52.124;5.422;2023-02-01T06:09:12;101874.88;;;5.61;84.14
71964;BME280;59834;52.124;5.422;2023-02-01T06:11:39;101874.03;;;5.61;83.54
71964;BME280;59834;52.124;5.422;2023-02-01T06:14:06;101866.25;;;5.61;84.31
71964;BME280;59834;52.124;5.422;2023-02-01T06:16:34;101857.63;;;5.60;84.19
71964;BME280;59834;52.124;5.422;2023-02-01T06:19:00;101867.09;;;5.61;83.94
71964;BME280;59834;52.124;5.422;2023-02-01T06:21:27;101866.19;;;5.62;83.68
71964;BME280;59834;52.124;5.422;2023-02-01T06:23:54;101870.53;;;5.62;84.13
71964;BME280;59834;52.124;5.422;2023-02-01T06:26:21;101855.03;;;5.59;84.13
71964;BME280;59834;52.124;5.422;2023-02-01T06:28:47;101873.28;;;5.56;84.47
71964;BME280;59834;52.124;5.422;2023-02-01T06:31:14;101865.75;;;5.47;84.90
71964;BME280;59834;52.124;5.422;2023-02-01T06:33:41;101871.97;;;5.41;84.92
71964;BME280;59834;52.124;5.422;2023-02-01T06:36:10;101877.22;;;5.38;85.45
71964;BME280;59834;52.124;5.422;2023-02-01T06:38:38;101889.53;;;5.30;85.47
71964;BME280;59834;52.124;5.422;2023-02-01T06:41:05;101880.19;;;5.23;85.74
71964;BME280;59834;52.124;5.422;2023-02-01T06:43:32;101893.22;;;5.21;86.04
71964;BME280;59834;52.124;5.422;2023-02-01T06:46:04;101892.38;;;5.20;85.74
71964;BME280;59834;52.124;5.422;2023-02-01T06:48:31;101889.84;;;5.17;85.73
71964;BME280;59834;52.124;5.422;2023-02-01T06:50:59;101899.53;;;5.11;86.61
71964;BME280;59834;52.124;5.422;2023-02-01T06:53:25;101894.34;;;5.11;85.99
71964;BME280;59834;52.124;5.422;2023-02-01T06:56:00;101900.16;;;5.20;86.51
71964;BME280;59834;52.124;5.422;2023-02-01T06:58:30;101902.78;;;5.19;86.02
71964;BME280;59834;52.124;5.422;2023-02-01T07:00:57;101895.06;;;5.16;85.78
71964;BME280;59834;52.124;5.422;2023-02-01T07:03:27;101893.34;;;5.15;86.60
71964;BME280;59834;52.124;5.422;2023-02-01T07:05:57;101889.84;;;5.17;86.26
71964;BME280;59834;52.124;5.422;2023-02-01T07:08:29;101888.94;;;5.20;86.36
71964;BME280;59834;52.124;5.422;2023-02-01T07:10:56;101894.97;;;5.20;86.30
71964;BME280;59834;52.124;5.422;2023-02-01T07:13:23;101889.69;;;5.24;86.23
71964;BME280;59834;52.124;5.422;2023-02-01T07:15:50;101886.09;;;5.29;85.99
71964;BME280;59834;52.124;5.422;2023-02-01T07:18:16;101876.47;;;5.33;86.42
71964;BME280;59834;52.124;5.422;2023-02-01T07:20:43;101879.13;;;5.31;85.92
71964;BME280;59834;52.124;5.422;2023-02-01T07:23:10;101885.16;;;5.32;85.96
71964;BME280;59834;52.124;5.422;2023-02-01T07:25:36;101879.97;;;5.32;86.07
71964;BME280;59834;52.124;5.422;2023-02-01T07:28:05;101886.09;;;5.29;86.63
71964;BME280;59834;52.124;5.422;2023-02-01T07:30:31;101889.63;;;5.27;86.13
71964;BME280;59834;52.124;5.422;2023-02-01T07:32:58;101887.81;;;5.29;86.68
71964;BME280;59834;52.124;5.422;2023-02-01T07:35:28;101895.63;;;5.29;86.43
71964;BME280;59834;52.124;5.422;2023-02-01T07:37:57;101897.41;;;5.27;87.07
71964;BME280;59834;52.124;5.422;2023-02-01T07:40:24;101892.13;;;5.30;86.11
71964;BME280;59834;52.124;5.422;2023-02-01T07:42:55;101892.03;;;5.34;86.01
71964;BME280;59834;52.124;5.422;2023-02-01T07:45:22;101885.84;;;5.40;85.93
71964;BME280;59834;52.124;5.422;2023-02-01T07:47:51;101886.75;;;5.37;84.83
71964;BME280;59834;52.124;5.422;2023-02-01T07:50:18;101885.91;;;5.37;85.49
71964;BME280;59834;52.124;5.422;2023-02-01T07:52:45;101883.53;;;5.28;85.93
71964;BME280;59834;52.124;5.422;2023-02-01T07:55:12;101892.25;;;5.25;86.17
71964;BME280;59834;52.124;5.422;2023-02-01T07:57:38;101888.59;;;5.32;85.88
71964;BME280;59834;52.124;5.422;2023-02-01T08:00:05;101896.38;;;5.34;85.50
71964;BME280;59834;52.124;5.422;2023-02-01T08:02:51;101900.72;;;5.33;85.96
71964;BME280;59834;52.124;5.422;2023-02-01T08:05:17;101898.13;;;5.33;85.40
71964;BME280;59834;52.124;5.422;2023-02-01T08:07:48;101899.75;;;5.37;85.42
71964;BME280;59834;52.124;5.422;2023-02-01T08:10:15;101918.69;;;5.41;85.48
71964;BME280;59834;52.124;5.422;2023-02-01T08:12:43;101914.34;;;5.41;85.00
71964;BME280;59834;52.124;5.422;2023-02-01T08:15:17;101906.69;;;5.37;85.84
71964;BME280;59834;52.124;5.422;2023-02-01T08:17:51;101915.19;;;5.42;85.37
71964;BME280;59834;52.124;5.422;2023-02-01T08:20:18;101906.50;;;5.43;85.76
71964;BME280;59834;52.124;5.422;2023-02-01T08:22:45;101899.47;;;5.48;86.20
71964;BME280;59834;52.124;5.422;2023-02-01T08:25:11;101911.31;;;5.58;85.84
71964;BME280;59834;52.124;5.422;2023-02-01T08:27:38;101882.69;;;5.61;85.08
71964;BME280;59834;52.124;5.422;2023-02-01T08:30:05;101879.09;;;5.67;84.99
71964;BME280;59834;52.124;5.422;2023-02-01T08:32:34;101883.41;;;5.66;85.17
71964;BME280;59834;52.124;5.422;2023-02-01T08:35:01;101884.28;;;5.67;84.69
71964;BME280;59834;52.124;5.422;2023-02-01T08:37:28;101879.84;;;5.71;84.42
71964;BME280;59834;52.124;5.422;2023-02-01T08:39:54;101882.53;;;5.67;84.79
71964;BME280;59834;52.124;5.422;2023-02-01T08:42:22;101889.47;;;5.67;84.50
71964;BME280;59834;52.124;5.422;2023-02-01T08:45:07;101876.44;;;5.68;84.93
71964;BME280;59834;52.124;5.422;2023-02-01T08:47:35;101876.34;;;5.72;84.94
71964;BME280;59834;52.124;5.422;2023-02-01T08:50:01;101880.53;;;5.77;84.14
71964;BME280;59834;52.124;5.422;2023-02-01T08:52:28;101878.66;;;5.82;84.41
71964;BME280;59834;52.124;5.422;2023-02-01T08:54:55;101883.63;;;5.90;83.92
71964;BME280;59834;52.124;5.422;2023-02-01T08:57:21;101874.84;;;5.96;83.79
71964;BME280;59834;52.124;5.422;2023-02-01T08:59:48;101887.75;;;6.00;83.91
71964;BME280;59834;52.124;5.422;2023-02-01T09:02:16;101885.94;;;6.02;84.05
71964;BME280;59834;52.124;5.422;2023-02-01T09:04:43;101882.28;;;6.09;83.82
71964;BME280;59834;52.124;5.422;2023-02-01T09:07:10;101872.72;;;6.10;83.30
71964;BME280;59834;52.124;5.422;2023-02-01T09:09:37;101871.84;;;6.11;83.54
71964;BME280;59834;52.124;5.422;2023-02-01T09:12:05;101868.13;;;6.20;83.13
71964;BME280;59834;52.124;5.422;2023-02-01T09:14:31;101859.81;;;6.36;82.61
71964;BME280;59834;52.124;5.422;2023-02-01T09:16:58;101860.03;;;6.58;82.55
71964;BME280;59834;52.124;5.422;2023-02-01T09:19:25;101870.19;;;6.68;81.99
71964;BME280;59834;52.124;5.422;2023-02-01T09:21:53;101862.13;;;6.75;81.57
71964;BME280;59834;52.124;5.422;2023-02-01T09:24:19;101860.44;;;6.74;80.99
71964;BME280;59834;52.124;5.422;2023-02-01T09:26:47;101865.53;;;6.77;80.40
71964;BME280;59834;52.124;5.422;2023-02-01T09:29:13;101864.56;;;6.80;80.36
71964;BME280;59834;52.124;5.422;2023-02-01T09:31:40;101865.41;;;6.80;79.89
71964;BME280;59834;52.124;5.422;2023-02-01T09:34:12;101872.56;;;6.74;80.12
71964;BME280;59834;52.124;5.422;2023-02-01T09:36:38;101881.38;;;6.70;79.57
71964;BME280;59834;52.124;5.422;2023-02-01T09:39:05;101869.28;;;6.69;80.29
71964;BME280;59834;52.124;5.422;2023-02-01T09:41:41;101873.72;;;6.65;80.35
71964;BME280;59834;52.124;5.422;2023-02-01T09:46:54;101864.22;;;6.64;79.92
71964;BME280;59834;52.124;5.422;2023-02-01T09:49:27;101872.03;;;6.64;80.16
71964;BME280;59834;52.124;5.422;2023-02-01T09:51:56;101865.00;;;6.66;80.13
71964;BME280;59834;52.124;5.422;2023-02-01T09:54:29;101871.03;;;6.68;80.14
71964;BME280;59834;52.124;5.422;2023-02-01T09:57:08;101882.47;;;6.63;80.39
71964;BME280;59834;52.124;5.422;2023-02-01T09:59:40;101875.66;;;6.58;80.31
71964;BME280;59834;52.124;5.422;2023-02-01T10:02:13;101867.09;;;6.55;80.92
71964;BME280;59834;52.124;5.422;2023-02-01T10:04:41;101866.34;;;6.51;81.29
71964;BME280;59834;52.124;5.422;2023-02-01T10:10:54;101861.03;;;6.54;81.54
71964;BME280;59834;52.124;5.422;2023-02-01T10:21:28;101852.59;;;6.46;82.48
71964;BME280;59834;52.124;5.422;2023-02-01T10:24:28;101863.16;;;6.42;82.89
71964;BME280;59834;52.124;5.422;2023-02-01T10:27:11;101877.31;;;6.31;85.18
71964;BME280;59834;52.124;5.422;2023-02-01T10:29:41;101884.53;;;6.22;85.94
71964;BME280;59834;52.124;5.422;2023-02-01T10:32:17;101876.00;;;6.17;87.26
71964;BME280;59834;52.124;5.422;2023-02-01T10:34:47;101872.56;;;6.16;87.14
71964;BME280;59834;52.124;5.422;2023-02-01T10:37:30;101865.56;;;6.18;87.01
71964;BME280;59834;52.124;5.422;2023-02-01T10:40:21;101862.91;;;6.20;87.03
71964;BME280;59834;52.124;5.422;2023-02-01T10:42:53;101859.38;;;6.22;86.68
71964;BME280;59834;52.124;5.422;2023-02-01T10:45:22;101852.44;;;6.23;86.96
71964;BME280;59834;52.124;5.422;2023-02-01T10:47:53;101860.13;;;6.26;86.45
71964;BME280;59834;52.124;5.422;2023-02-01T10:53:17;101856.44;;;6.34;85.97
71964;BME280;59834;52.124;5.422;2023-02-01T10:55:49;101845.06;;;6.37;85.79
71964;BME280;59834;52.124;5.422;2023-02-01T10:58:25;101839.66;;;6.45;85.03
71964;BME280;59834;52.124;5.422;2023-02-01T11:00:56;101848.13;;;6.51;84.42
71964;BME280;59834;52.124;5.422;2023-02-01T11:03:42;101839.06;;;6.63;83.14
71964;BME280;59834;52.124;5.422;2023-02-01T11:06:11;101828.34;;;6.74;82.41
71964;BME280;59834;52.124;5.422;2023-02-01T11:08:50;101808.31;;;6.76;82.66
71964;BME280;59834;52.124;5.422;2023-02-01T11:11:18;101822.19;;;6.76;82.55
71964;BME280;59834;52.124;5.422;2023-02-01T11:13:52;101835.25;;;6.75;82.50
71964;BME280;59834;52.124;5.422;2023-02-01T11:16:20;101835.94;;;6.80;81.95
71964;BME280;59834;52.124;5.422;2023-02-01T11:18:53;101829.91;;;6.79;82.54
71964;BME280;59834;52.124;5.422;2023-02-01T11:21:21;101817.03;;;6.75;83.74
71964;BME280;59834;52.124;5.422;2023-02-01T11:23:49;101824.94;;;6.72;83.62
71964;BME280;59834;52.124;5.422;2023-02-01T11:26:24;101826.53;;;6.76;83.34
71964;BME280;59834;52.124;5.422;2023-02-01T11:29:03;101831.50;;;6.83;82.71
71964;BME280;59834;52.124;5.422;2023-02-01T11:31:32;101823.50;;;6.90;82.24
71964;BME280;59834;52.124;5.422;2023-02-01T11:34:20;101826.94;;;6.90;82.68
71964;BME280;59834;52.124;5.422;2023-02-01T11:36:49;101821.66;;;6.93;82.42
71964;BME280;59834;52.124;5.422;2023-02-01T11:39:25;101831.81;;;7.01;82.11
71964;BME280;59834;52.124;5.422;2023-02-01T11:42:11;101808.06;;;7.10;81.59
71964;BME280;59834;52.124;5.422;2023-02-01T11:44:42;101827.09;;;7.12;81.07
71964;BME280;59834;52.124;5.422;2023-02-01T11:47:29;101829.44;;;7.20;81.50
71964;BME280;59834;52.124;5.422;2023-02-01T11:50:03;101813.34;;;7.33;81.08
71964;BME280;59834;52.124;5.422;2023-02-01T11:53:25;101814.34;;;7.31;81.44
71964;BME280;59834;52.124;5.422;2023-02-01T11:55:39;101819.53;;;7.31;81.64
71964;BME280;59834;52.124;5.422;2023-02-01T12:03:59;101805.28;;;7.41;81.04
71964;BME280;59834;52.124;5.422;2023-02-01T12:12:32;101810.97;;;7.52;79.42
71964;BME280;59834;52.124;5.422;2023-02-01T12:17:48;101820.25;;;7.60;79.15
71964;BME280;59834;52.124;5.422;2023-02-01T12:29:14;101814.53;;;7.50;78.99
71964;BME280;59834;52.124;5.422;2023-02-01T12:40:41;101803.63;;;7.39;79.90
71964;BME280;59834;52.124;5.422;2023-02-01T12:43:14;101796.78;;;7.36;79.10
71964;BME280;59834;52.124;5.422;2023-02-01T12:46:11;101810.72;;;7.35;79.43
71964;BME280;59834;52.124;5.422;2023-02-01T12:51:21;101797.81;;;7.30;79.71
71964;BME280;59834;52.124;5.422;2023-02-01T12:53:55;101819.56;;;7.29;80.29
71964;BME280;59834;52.124;5.422;2023-02-01T12:59:08;101787.41;;;7.30;79.23
71964;BME280;59834;52.124;5.422;2023-02-01T13:01:41;101805.59;;;7.32;80.42
71964;BME280;59834;52.124;5.422;2023-02-01T13:04:29;101806.25;;;7.39;80.35
71964;BME280;59834;52.124;5.422;2023-02-01T13:07:24;101806.88;;;7.45;79.77
71964;BME280;59834;52.124;5.422;2023-02-01T13:09:59;101791.28;;;7.44;80.06
71964;BME280;59834;52.124;5.422;2023-02-01T13:12:36;101806.13;;;7.42;79.97
71964;BME280;59834;52.124;5.422;2023-02-01T13:15:17;101804.59;;;7.36;79.73
71964;BME280;59834;52.124;5.422;2023-02-01T13:17:46;101802.09;;;7.33;80.21
71964;BME280;59834;52.124;5.422;2023-02-01T13:25:48;101803.19;;;7.26;80.58
71964;BME280;59834;52.124;5.422;2023-02-01T13:28:35;101799.75;;;7.25;81.22
71964;BME280;59834;52.124;5.422;2023-02-01T13:36:53;101808.31;;;7.29;80.38
71964;BME280;59834;52.124;5.422;2023-02-01T13:42:21;101820.41;;;7.30;80.88
71964;BME280;59834;52.124;5.422;2023-02-01T13:44:55;101810.72;;;7.35;81.03
71964;BME280;59834;52.124;5.422;2023-02-01T13:47:28;101814.06;;;7.39;80.73
71964;BME280;59834;52.124;5.422;2023-02-01T13:49:59;101816.56;;;7.42;80.39
71964;BME280;59834;52.124;5.422;2023-02-01T13:52:34;101805.13;;;7.46;79.96
71964;BME280;59834;52.124;5.422;2023-02-01T13:55:27;101813.69;;;7.49;79.90
71964;BME280;59834;52.124;5.422;2023-02-01T13:58:06;101807.44;;;7.53;79.58
71964;BME280;59834;52.124;5.422;2023-02-01T14:00:39;101809.09;;;7.56;79.61
71964;BME280;59834;52.124;5.422;2023-02-01T14:10:53;101813.16;;;7.65;79.66
71964;BME280;59834;52.124;5.422;2023-02-01T14:13:36;101815.78;;;7.63;79.57
71964;BME280;59834;52.124;5.422;2023-02-01T14:21:18;101823.03;;;7.55;80.34
71964;BME280;59834;52.124;5.422;2023-02-01T14:31:59;101814.59;;;7.48;81.31
71964;BME280;59834;52.124;5.422;2023-02-01T14:50:36;101806.06;;;7.43;81.30
71964;BME280;59834;52.124;5.422;2023-02-01T14:56:06;101813.09;;;7.41;81.40
71964;BME280;59834;52.124;5.422;2023-02-01T14:58:56;101802.81;;;7.37;83.59
71964;BME280;59834;52.124;5.422;2023-02-01T15:01:30;101804.78;;;7.30;83.97
71964;BME280;59834;52.124;5.422;2023-02-01T15:04:11;101812.72;;;7.27;84.20
71964;BME280;59834;52.124;5.422;2023-02-01T15:06:41;101821.38;;;7.27;84.08
71964;BME280;59834;52.124;5.422;2023-02-01T15:09:28;101818.00;;;7.24;84.90
71964;BME280;59834;52.124;5.422;2023-02-01T15:15:19;101837.06;;;7.26;84.31
71964;BME280;59834;52.124;5.422;2023-02-01T15:17:28;101839.50;;;7.30;83.68
71964;BME280;59834;52.124;5.422;2023-02-01T15:20:14;101835.16;;;7.31;83.87
71964;BME280;59834;52.124;5.422;2023-02-01T15:25:25;101837.69;;;7.32;84.09
71964;BME280;59834;52.124;5.422;2023-02-01T15:27:52;101843.75;;;7.33;83.54
71964;BME280;59834;52.124;5.422;2023-02-01T15:30:30;101842.84;;;7.34;83.83
71964;BME280;59834;52.124;5.422;2023-02-01T15:35:48;101850.56;;;7.37;84.32
71964;BME280;59834;52.124;5.422;2023-02-01T15:43:36;101845.25;;;7.40;83.59
71964;BME280;59834;52.124;5.422;2023-02-01T15:46:09;101847.81;;;7.42;83.35
71964;BME280;59834;52.124;5.422;2023-02-01T15:48:46;101858.97;;;7.45;83.25
71964;BME280;59834;52.124;5.422;2023-02-01T15:51:24;101850.22;;;7.48;83.27
71964;BME280;59834;52.124;5.422;2023-02-01T15:53:57;101848.56;;;7.45;83.05